createdAt,value
2018-09-02T00:00:05.202Z,19.88
2018-09-02T00:01:02.668Z,19.85
2018-09-02T00:02:07.107Z,19.86
2018-09-02T00:03:02.639Z,19.82
2018-09-02T00:04:07.295Z,19.82
2018-09-02T00:05:02.663Z,19.88
2018-09-02T00:06:02.683Z,19.82
2018-09-02T00:07:03.091Z,19.89
2018-09-02T00:08:02.656Z,19.89
2018-09-02T00:09:02.537Z,19.84
2018-09-02T00:10:03.285Z,19.82
2018-09-02T00:11:02.619Z,19.86
2018-09-02T00:12:02.615Z,19.84
2018-09-02T00:13:04.292Z,19.82
2018-09-02T00:14:02.380Z,19.88
2018-09-02T00:15:02.462Z,19.86
2018-09-02T00:16:02.699Z,19.89
2018-09-02T00:17:02.587Z,19.86
2018-09-02T00:18:02.380Z,19.85
2018-09-02T00:19:02.598Z,19.88
2018-09-02T00:20:02.442Z,19.85
2018-09-02T00:21:02.932Z,19.85
2018-09-02T00:22:02.521Z,19.88
2018-09-02T00:23:03.310Z,19.89
2018-09-02T00:24:03.143Z,19.89
2018-09-02T00:25:02.430Z,19.79
2018-09-02T00:26:02.524Z,19.89
2018-09-02T00:27:05.128Z,19.88
2018-09-02T00:28:02.410Z,19.84
2018-09-02T00:29:02.247Z,19.74
2018-09-02T00:30:02.480Z,19.76
2018-09-02T00:31:03.347Z,19.79
2018-09-02T00:32:02.224Z,19.79
2018-09-02T00:33:02.425Z,19.76
2018-09-02T00:34:04.332Z,19.76
2018-09-02T00:35:02.391Z,19.71
2018-09-02T00:36:04.194Z,19.73
2018-09-02T00:37:07.144Z,19.73
2018-09-02T00:38:02.425Z,19.74
2018-09-02T00:39:02.188Z,19.73
2018-09-02T00:40:02.368Z,19.76
2018-09-02T00:41:03.286Z,19.71
2018-09-02T00:42:03.121Z,19.69
2018-09-02T00:43:02.284Z,19.77
2018-09-02T00:44:02.255Z,19.73
2018-09-02T00:45:02.221Z,19.73
2018-09-02T00:46:02.288Z,19.76
2018-09-02T00:47:02.310Z,19.71
2018-09-02T00:48:02.506Z,19.74
2018-09-02T00:49:03.639Z,19.74
2018-09-02T00:50:02.191Z,19.66
2018-09-02T00:51:02.930Z,19.67
2018-09-02T00:52:02.243Z,19.71
2018-09-02T00:53:03.548Z,19.73
2018-09-02T00:54:02.276Z,19.58
2018-09-02T00:55:06.736Z,19.70
2018-09-02T00:56:02.298Z,19.64
2018-09-02T00:57:02.189Z,19.66
2018-09-02T00:58:04.835Z,19.63
2018-09-02T00:59:03.630Z,19.63
2018-09-02T01:00:04.792Z,19.58
2018-09-02T01:01:03.908Z,19.54
2018-09-02T01:02:04.805Z,19.41
2018-09-02T01:03:06.788Z,19.44
2018-09-02T01:04:02.744Z,19.37
2018-09-02T01:05:02.146Z,19.37
2018-09-02T01:06:03.784Z,19.29
2018-09-02T01:07:06.710Z,19.21
2018-09-02T01:08:02.395Z,19.33
2018-09-02T01:09:16.732Z,19.33
2018-09-02T01:10:02.007Z,19.26
2018-09-02T01:11:06.754Z,19.21
2018-09-02T01:12:02.714Z,19.04
2018-09-02T01:13:02.037Z,19.16
2018-09-02T01:14:02.686Z,19.00
2018-09-02T01:15:06.815Z,19.07
2018-09-02T01:16:11.059Z,19.07
2018-09-02T01:17:01.960Z,18.96
2018-09-02T01:18:02.785Z,18.95
2018-09-02T01:19:04.608Z,18.89
2018-09-02T01:20:04.871Z,18.90
2018-09-02T01:21:02.035Z,18.90
2018-09-02T01:22:01.823Z,18.80
2018-09-02T01:23:04.976Z,18.88
2018-09-02T01:24:01.914Z,18.88
2018-09-02T01:25:02.656Z,18.86
2018-09-02T01:26:01.898Z,18.88
2018-09-02T01:27:01.883Z,18.89
2018-09-02T01:28:01.856Z,18.92
2018-09-02T01:29:01.852Z,18.90
2018-09-02T01:30:02.724Z,18.95
2018-09-02T01:31:01.922Z,18.95
2018-09-02T01:32:01.735Z,18.89
2018-09-02T01:33:02.267Z,18.88
2018-09-02T01:34:01.886Z,18.90
2018-09-02T01:36:24.010Z,18.80
2018-09-02T01:37:22.831Z,18.80
2018-09-02T01:39:28.717Z,18.80
2018-09-02T01:40:17.567Z,18.77
2018-09-02T01:41:16.144Z,18.84
2018-09-02T01:43:39.120Z,18.80
2018-09-02T01:45:51.043Z,18.80
2018-09-02T01:46:51.065Z,18.78
2018-09-02T01:47:50.816Z,18.73
2018-09-02T01:48:51.482Z,18.70
2018-09-02T01:49:51.013Z,18.70
2018-09-02T01:50:51.579Z,18.73
2018-09-02T01:51:52.449Z,18.78
2018-09-02T01:52:52.469Z,18.66
2018-09-02T01:53:50.849Z,18.70
2018-09-02T01:54:52.559Z,18.75
2018-09-02T01:55:50.917Z,18.83
2018-09-02T01:56:51.553Z,18.78
2018-09-02T01:57:50.845Z,18.80
2018-09-02T01:58:57.493Z,18.81
2018-09-02T01:59:50.704Z,18.80
2018-09-02T02:00:50.736Z,18.88
2018-09-02T02:01:51.402Z,18.86
2018-09-02T02:02:50.708Z,18.90
2018-09-02T02:03:50.886Z,18.92
2018-09-02T02:04:50.751Z,18.92
2018-09-02T02:05:51.464Z,18.96
2018-09-02T02:06:50.739Z,18.95
2018-09-02T02:07:53.426Z,18.95
2018-09-02T02:08:50.822Z,18.93
2018-09-02T02:10:11.854Z,18.95
2018-09-02T02:10:50.593Z,18.93
2018-09-02T02:11:50.688Z,18.96
2018-09-02T02:12:52.565Z,19.07
2018-09-02T02:13:50.589Z,19.07
2018-09-02T02:14:50.676Z,19.11
2018-09-02T02:15:50.614Z,19.07
2018-09-02T02:16:55.565Z,18.95
2018-09-02T02:17:50.875Z,18.93
2018-09-02T02:18:59.145Z,18.95
2018-09-02T02:20:44.593Z,18.92
2018-09-02T02:21:43.988Z,18.95
2018-09-02T02:22:43.932Z,19.08
2018-09-02T02:23:44.093Z,19.04
2018-09-02T02:24:43.969Z,19.07
2018-09-02T02:25:44.603Z,19.04
2018-09-02T02:26:44.122Z,19.00
2018-09-02T02:27:45.623Z,19.09
2018-09-02T02:28:52.616Z,19.04
2018-09-02T02:30:44.736Z,19.02
2018-09-02T02:32:51.833Z,19.04
2018-09-02T02:33:50.928Z,18.98
2018-09-02T02:35:11.952Z,18.99
2018-09-02T02:36:50.906Z,18.92
2018-09-02T02:37:50.893Z,18.88
2018-09-02T02:38:50.997Z,18.95
2018-09-02T02:39:50.779Z,18.98
2018-09-02T02:40:50.973Z,18.96
2018-09-02T02:43:13.829Z,18.95
2018-09-02T02:44:11.872Z,18.95
2018-09-02T02:46:20.603Z,18.95
2018-09-02T02:47:08.610Z,18.92
2018-09-02T02:49:00.499Z,19.07
2018-09-02T02:50:00.269Z,19.07
2018-09-02T02:51:54.166Z,19.00
2018-09-02T02:52:55.869Z,18.95
2018-09-02T02:53:54.308Z,18.89
2018-09-02T02:54:53.708Z,18.95
2018-09-02T02:55:54.223Z,18.92
2018-09-02T02:56:53.687Z,18.92
2018-09-02T02:57:53.713Z,19.02
2018-09-02T02:58:54.152Z,18.90
2018-09-02T02:59:54.129Z,18.95
2018-09-02T03:00:53.731Z,18.90
2018-09-02T03:01:55.377Z,18.93
2018-09-02T03:02:55.182Z,18.92
2018-09-02T03:03:53.632Z,18.96
2018-09-02T03:04:54.337Z,18.98
2018-09-02T03:05:54.293Z,18.98
2018-09-02T03:06:53.632Z,18.92
2018-09-02T03:08:04.208Z,18.95
2018-09-02T03:08:53.533Z,18.95
2018-09-02T03:09:53.612Z,18.99
2018-09-02T03:10:53.515Z,19.02
2018-09-02T03:11:53.566Z,19.08
2018-09-02T03:12:53.444Z,19.14
2018-09-02T03:13:53.636Z,19.15
2018-09-02T03:14:53.415Z,19.12
2018-09-02T03:15:54.377Z,19.08
2018-09-02T03:16:55.303Z,19.19
2018-09-02T03:17:53.570Z,19.09
2018-09-02T03:18:53.473Z,19.15
2018-09-02T03:19:54.302Z,19.27
2018-09-02T03:20:53.603Z,19.22
2018-09-02T03:21:53.242Z,19.26
2018-09-02T03:22:53.615Z,19.34
2018-09-02T03:23:53.359Z,19.37
2018-09-02T03:24:53.424Z,19.27
2018-09-02T03:25:55.241Z,19.26
2018-09-02T03:26:54.089Z,19.34
2018-09-02T03:27:56.293Z,19.21
2018-09-02T03:28:53.566Z,19.39
2018-09-02T03:29:53.537Z,19.21
2018-09-02T03:31:56.197Z,19.33
2018-09-02T03:32:53.177Z,19.26
2018-09-02T03:33:53.215Z,19.27
2018-09-02T03:34:53.316Z,19.22
2018-09-02T03:35:53.320Z,19.24
2018-09-02T03:36:53.315Z,19.39
2018-09-02T03:37:53.306Z,19.34
2018-09-02T03:38:53.382Z,19.39
2018-09-02T03:39:53.340Z,19.36
2018-09-02T03:41:14.384Z,19.36
2018-09-02T03:41:53.352Z,19.33
2018-09-02T03:42:53.375Z,19.34
2018-09-02T03:43:53.676Z,19.37
2018-09-02T03:44:53.212Z,19.40
2018-09-02T03:45:53.281Z,19.33
2018-09-02T03:48:14.343Z,19.34
2018-09-02T03:49:14.154Z,19.37
2018-09-02T03:51:10.712Z,19.41
2018-09-02T03:52:10.764Z,19.36
2018-09-02T03:53:10.599Z,19.41
2018-09-02T03:54:10.747Z,19.36
2018-09-02T03:55:10.862Z,19.49
2018-09-02T03:56:10.726Z,19.41
2018-09-02T03:57:10.660Z,19.41
2018-09-02T03:58:10.724Z,19.55
2018-09-02T03:59:10.766Z,19.47
2018-09-02T04:00:10.647Z,19.49
2018-09-02T04:01:10.691Z,19.59
2018-09-02T04:02:12.571Z,19.62
2018-09-02T04:03:10.749Z,19.62
2018-09-02T04:04:10.708Z,19.63
2018-09-02T04:05:10.621Z,19.66
2018-09-02T04:06:10.751Z,19.63
2018-09-02T04:07:10.713Z,19.71
2018-09-02T04:08:13.138Z,19.70
2018-09-02T04:09:10.609Z,19.74
2018-09-02T04:10:10.874Z,19.63
2018-09-02T04:11:10.496Z,19.76
2018-09-02T04:12:10.512Z,19.82
2018-09-02T04:13:10.436Z,19.84
2018-09-02T04:14:10.604Z,19.86
2018-09-02T04:15:10.579Z,19.92
2018-09-02T04:16:10.504Z,20.02
2018-09-02T04:17:10.533Z,20.02
2018-09-02T04:18:10.398Z,20.04
2018-09-02T04:19:10.592Z,20.16
2018-09-02T04:20:10.446Z,20.14
2018-09-02T04:21:10.517Z,20.11
2018-09-02T04:22:10.526Z,20.25
2018-09-02T04:23:10.440Z,20.28
2018-09-02T04:24:10.562Z,20.28
2018-09-02T04:25:10.410Z,20.34
2018-09-02T04:26:10.499Z,20.37
2018-09-02T04:27:10.425Z,20.31
2018-09-02T04:28:10.450Z,20.37
2018-09-02T04:29:10.317Z,20.50
2018-09-02T04:30:10.419Z,20.51
2018-09-02T04:31:10.309Z,20.56
2018-09-02T04:32:10.350Z,20.50
2018-09-02T04:34:10.349Z,20.52
2018-09-02T04:35:10.597Z,20.48
2018-09-02T04:36:10.320Z,20.52
2018-09-02T04:37:10.247Z,20.63
2018-09-02T04:38:10.374Z,20.66
2018-09-02T04:39:10.220Z,20.65
2018-09-02T04:40:10.194Z,20.59
2018-09-02T04:41:10.212Z,20.52
2018-09-02T04:42:12.357Z,20.47
2018-09-02T04:43:10.241Z,20.39
2018-09-02T04:44:10.513Z,20.36
2018-09-02T04:45:10.345Z,20.43
2018-09-02T04:46:10.548Z,20.39
2018-09-02T04:47:10.411Z,20.40
2018-09-02T04:48:10.257Z,20.28
2018-09-02T04:49:10.306Z,20.25
2018-09-02T04:50:10.171Z,20.32
2018-09-02T04:51:10.275Z,20.26
2018-09-02T04:52:10.253Z,20.25
2018-09-02T04:53:10.445Z,20.37
2018-09-02T04:54:10.094Z,20.41
2018-09-02T04:55:10.178Z,20.34
2018-09-02T04:56:10.211Z,20.47
2018-09-02T04:57:10.296Z,20.59
2018-09-02T04:58:10.240Z,20.66
2018-09-02T04:59:10.141Z,20.78
2018-09-02T05:01:10.110Z,20.95
2018-09-02T05:02:10.295Z,20.90
2018-09-02T05:03:10.236Z,21.02
2018-09-02T05:04:10.137Z,21.07
2018-09-02T05:05:10.102Z,21.05
2018-09-02T05:06:10.035Z,21.02
2018-09-02T05:07:17.874Z,21.00
2018-09-02T05:09:04.115Z,20.99
2018-09-02T05:10:03.661Z,21.03
2018-09-02T05:11:59.901Z,21.00
2018-09-02T05:12:57.190Z,20.92
2018-09-02T05:13:57.179Z,21.00
2018-09-02T05:14:58.899Z,21.05
2018-09-02T05:15:57.172Z,21.06
2018-09-02T05:16:57.087Z,21.00
2018-09-02T05:17:57.243Z,21.00
2018-09-02T05:18:57.158Z,21.11
2018-09-02T05:19:57.093Z,21.09
2018-09-02T05:20:56.971Z,21.15
2018-09-02T05:21:57.099Z,21.12
2018-09-02T05:22:57.021Z,21.07
2018-09-02T05:23:58.853Z,21.11
2018-09-02T05:24:57.035Z,21.07
2018-09-02T05:25:56.977Z,21.11
2018-09-02T05:26:57.151Z,21.11
2018-09-02T05:27:57.137Z,21.14
2018-09-02T05:28:57.222Z,21.21
2018-09-02T05:29:56.967Z,21.22
2018-09-02T05:30:57.134Z,21.29
2018-09-02T05:31:58.916Z,21.33
2018-09-02T05:33:03.868Z,21.40
2018-09-02T05:33:56.868Z,21.46
2018-09-02T05:34:57.112Z,21.37
2018-09-02T05:35:56.935Z,21.51
2018-09-02T05:36:57.956Z,21.54
2018-09-02T05:37:59.642Z,21.58
2018-09-02T05:38:57.321Z,21.61
2018-09-02T05:39:56.895Z,21.57
2018-09-02T05:40:56.903Z,21.46
2018-09-02T05:41:57.409Z,21.60
2018-09-02T05:42:56.896Z,21.55
2018-09-02T05:43:56.926Z,21.58
2018-09-02T05:44:56.971Z,21.55
2018-09-02T05:45:56.809Z,21.57
2018-09-02T05:46:56.767Z,21.62
2018-09-02T05:47:56.861Z,21.61
2018-09-02T05:48:56.973Z,21.57
2018-09-02T05:52:19.028Z,21.64
2018-09-02T05:53:19.673Z,21.66
2018-09-02T05:54:19.890Z,21.69
2018-09-02T05:55:20.581Z,21.69
2018-09-02T05:56:21.536Z,21.75
2018-09-02T05:57:18.967Z,21.79
2018-09-02T05:58:19.103Z,21.75
2018-09-02T05:59:19.009Z,21.80
2018-09-02T06:00:19.076Z,21.91
2018-09-02T06:01:18.732Z,21.85
2018-09-02T06:02:19.095Z,21.93
2018-09-02T06:03:19.588Z,21.93
2018-09-02T06:04:19.506Z,21.93
2018-09-02T06:05:20.556Z,21.93
2018-09-02T06:06:23.511Z,21.95
2018-09-02T06:07:18.912Z,21.96
2018-09-02T06:08:21.447Z,21.99
2018-09-02T06:09:19.479Z,22.07
2018-09-02T06:10:18.898Z,22.08
2018-09-02T06:11:18.959Z,22.02
2018-09-02T06:12:28.150Z,22.10
2018-09-02T06:14:30.871Z,22.14
2018-09-02T06:15:12.106Z,22.11
2018-09-02T06:16:12.721Z,22.22
2018-09-02T06:17:13.829Z,22.26
2018-09-02T06:18:13.907Z,22.28
2018-09-02T06:19:12.285Z,22.25
2018-09-02T06:20:22.891Z,22.33
2018-09-02T06:21:12.308Z,22.35
2018-09-02T06:22:12.146Z,22.44
2018-09-02T06:24:12.128Z,22.68
2018-09-02T06:25:12.000Z,22.66
2018-09-02T06:26:12.177Z,22.73
2018-09-02T06:27:11.990Z,22.68
2018-09-02T06:28:12.053Z,22.81
2018-09-02T06:29:13.795Z,22.83
2018-09-02T06:30:11.924Z,22.85
2018-09-02T06:31:12.021Z,22.87
2018-09-02T06:32:13.800Z,23.00
2018-09-02T06:33:12.142Z,23.08
2018-09-02T06:34:12.154Z,23.20
2018-09-02T06:35:11.847Z,23.23
2018-09-02T06:36:13.962Z,23.25
2018-09-02T06:37:12.024Z,23.31
2018-09-02T06:38:11.956Z,23.23
2018-09-02T06:39:12.135Z,23.24
2018-09-02T06:40:11.872Z,23.24
2018-09-02T06:41:12.598Z,23.34
2018-09-02T06:42:12.148Z,23.37
2018-09-02T06:43:12.098Z,23.37
2018-09-02T06:44:12.033Z,23.51
2018-09-02T06:45:13.968Z,23.55
2018-09-02T06:46:13.930Z,23.59
2018-09-02T06:47:11.986Z,23.63
2018-09-02T06:48:12.019Z,23.66
2018-09-02T06:49:11.997Z,23.73
2018-09-02T06:51:12.003Z,24.16
2018-09-02T06:52:11.909Z,24.17
2018-09-02T06:53:11.994Z,24.35
2018-09-02T06:54:12.065Z,24.33
2018-09-02T06:55:11.879Z,24.42
2018-09-02T06:56:12.065Z,24.40
2018-09-02T06:57:11.839Z,24.29
2018-09-02T06:58:11.963Z,24.26
2018-09-02T06:59:11.988Z,24.32
2018-09-02T07:00:11.856Z,24.42
2018-09-02T07:01:11.916Z,24.54
2018-09-02T07:02:11.920Z,24.63
2018-09-02T07:03:11.751Z,24.54
2018-09-02T07:04:11.873Z,24.57
2018-09-02T07:05:13.047Z,24.53
2018-09-02T07:08:53.034Z,24.29
2018-09-02T07:09:31.670Z,24.32
2018-09-02T07:11:25.082Z,24.24
2018-09-02T07:12:25.044Z,24.38
2018-09-02T07:14:28.015Z,24.42
2018-09-02T07:15:20.960Z,24.45
2018-09-02T07:17:18.393Z,24.55
2018-09-02T07:21:06.862Z,24.80
2018-09-02T07:21:55.935Z,24.84
2018-09-02T07:23:49.324Z,25.04
2018-09-02T07:24:49.317Z,25.21
2018-09-02T07:25:50.353Z,25.41
2018-09-02T07:26:49.284Z,25.54
2018-09-02T07:27:50.165Z,25.75
2018-09-02T07:28:49.266Z,26.00
2018-09-02T07:29:49.155Z,26.15
2018-09-02T07:30:51.760Z,26.19
2018-09-02T07:31:49.173Z,26.34
2018-09-02T07:32:49.302Z,26.55
2018-09-02T07:33:49.883Z,26.56
2018-09-02T07:34:53.807Z,26.62
2018-09-02T07:36:11.742Z,26.80
2018-09-02T07:36:49.319Z,26.85
2018-09-02T07:37:53.667Z,26.88
2018-09-02T07:38:53.838Z,27.03
2018-09-02T07:39:49.201Z,27.22
2018-09-02T07:40:51.723Z,27.40
2018-09-02T07:42:10.214Z,27.54
2018-09-02T07:42:49.308Z,28.23
2018-09-02T07:44:49.243Z,28.98
2018-09-02T07:45:51.339Z,29.05
2018-09-02T07:46:50.667Z,29.36
2018-09-02T07:47:50.773Z,29.24
2018-09-02T07:48:49.285Z,29.31
2018-09-02T07:52:10.814Z,29.04
2018-09-02T07:53:10.315Z,29.05
2018-09-02T07:54:11.828Z,29.04
2018-09-02T07:55:20.682Z,29.01
2018-09-02T07:56:10.341Z,29.05
2018-09-02T07:57:10.332Z,29.19
2018-09-02T07:58:31.827Z,29.14
2018-09-02T07:59:10.856Z,29.20
2018-09-02T08:00:20.850Z,29.34
2018-09-02T08:01:10.260Z,29.39
2018-09-02T08:02:11.590Z,29.50
2018-09-02T08:03:10.250Z,29.49
2018-09-02T08:04:16.846Z,29.60
2018-09-02T08:05:11.821Z,29.71
2018-09-02T08:06:11.696Z,29.76
2018-09-02T08:07:12.865Z,30.15
2018-09-02T08:08:31.182Z,30.43
2018-09-02T08:09:11.287Z,31.87
2018-09-02T08:14:59.788Z,37.17
2018-09-02T08:16:44.659Z,40.33
2018-09-02T08:17:22.080Z,41.77
2018-09-02T08:19:31.579Z,43.86
2018-09-02T08:20:27.162Z,42.76
2018-09-02T08:22:23.655Z,42.20
2018-09-02T08:23:19.979Z,42.09
2018-09-02T08:26:13.422Z,46.04
2018-09-02T08:27:13.495Z,46.74
2018-09-02T08:29:13.403Z,46.16
2018-09-02T08:30:13.439Z,45.21
2018-09-02T08:31:15.120Z,45.62
2018-09-02T08:32:14.484Z,46.19
2018-09-02T08:33:19.926Z,45.13
2018-09-02T08:34:13.516Z,44.54
2018-09-02T08:35:13.394Z,43.54
2018-09-02T08:36:13.567Z,42.44
2018-09-02T08:37:13.910Z,41.66
2018-09-02T08:40:34.556Z,39.49
2018-09-02T08:41:15.434Z,38.82
2018-09-02T08:42:13.539Z,38.36
2018-09-02T08:43:16.032Z,37.82
2018-09-02T08:44:15.471Z,37.32
2018-09-02T08:45:13.529Z,36.72
2018-09-02T08:47:48.171Z,35.92
2018-09-02T08:48:34.084Z,35.67
2018-09-02T08:51:31.953Z,34.80
2018-09-02T08:52:53.533Z,34.54
2018-09-02T08:57:19.764Z,34.25
2018-09-02T08:59:38.661Z,34.39
2018-09-02T09:06:33.659Z,33.43
2018-09-02T09:08:48.907Z,33.02
2018-09-02T09:11:39.939Z,32.52
2018-09-02T09:13:43.961Z,32.29
2018-09-02T09:14:34.850Z,32.11
2018-09-02T09:15:33.346Z,31.77
2018-09-02T09:18:30.696Z,31.52
2018-09-02T09:21:19.574Z,31.43
2018-09-02T09:23:37.878Z,31.20
2018-09-02T09:24:30.673Z,31.07
2018-09-02T09:26:45.116Z,31.00
2018-09-02T09:27:25.644Z,30.91
2018-09-02T09:28:24.747Z,30.77
2018-09-02T09:29:24.101Z,30.77
2018-09-02T09:30:24.067Z,30.62
2018-09-02T09:34:33.071Z,30.37
2018-09-02T09:35:21.540Z,30.21
2018-09-02T09:39:05.349Z,29.93
2018-09-02T09:39:47.263Z,29.82
2018-09-02T09:41:40.560Z,29.82
2018-09-02T09:42:40.631Z,29.73
2018-09-02T09:43:40.619Z,29.53
2018-09-02T09:46:21.737Z,28.85
2018-09-02T09:47:13.750Z,28.72
2018-09-02T09:50:14.717Z,28.25
2018-09-02T09:51:13.734Z,28.10
2018-09-02T09:53:35.313Z,27.68
2018-09-02T09:54:34.567Z,27.54
2018-09-02T09:56:34.684Z,27.25
2018-09-02T09:57:34.602Z,27.25
2018-09-02T09:58:35.244Z,27.03
2018-09-02T09:59:34.821Z,26.89
2018-09-02T10:00:34.801Z,26.93
2018-09-02T10:01:34.473Z,26.90
2018-09-02T10:02:55.443Z,26.84
2018-09-02T10:03:34.793Z,26.77
2018-09-02T10:04:34.552Z,26.83
2018-09-02T10:05:34.564Z,26.78
2018-09-02T10:06:34.681Z,26.63
2018-09-02T10:07:35.180Z,26.77
2018-09-02T10:08:34.629Z,26.66
2018-09-02T10:09:35.209Z,26.74
2018-09-02T10:10:43.328Z,26.93
2018-09-02T10:12:28.719Z,26.93
2018-09-02T10:13:35.239Z,27.03
2018-09-02T10:14:28.185Z,26.90
2018-09-02T10:15:30.491Z,26.92
2018-09-02T10:16:28.119Z,26.89
2018-09-02T10:17:30.117Z,27.02
2018-09-02T10:18:30.126Z,27.10
2018-09-02T10:19:38.802Z,27.15
2018-09-02T10:20:31.177Z,27.21
2018-09-02T10:21:28.625Z,27.26
2018-09-02T10:22:28.002Z,27.29
2018-09-02T10:23:28.038Z,27.35
2018-09-02T10:24:29.039Z,27.36
2018-09-02T10:26:29.219Z,27.60
2018-09-02T10:27:42.602Z,27.83
2018-09-02T10:29:38.625Z,28.07
2018-09-02T10:30:28.019Z,28.23
2018-09-02T10:31:28.713Z,28.39
2018-09-02T10:32:49.680Z,28.72
2018-09-02T10:33:32.507Z,28.86
2018-09-02T10:34:28.213Z,30.47
2018-09-02T10:35:30.245Z,33.96
2018-09-02T10:39:03.746Z,39.72
2018-09-02T10:39:28.154Z,41.06
2018-09-02T10:40:33.636Z,41.66
2018-09-02T10:44:01.310Z,40.95
2018-09-02T10:46:00.282Z,40.78
2018-09-02T10:47:10.207Z,40.05
2018-09-02T10:48:10.302Z,39.11
2018-09-02T10:53:05.989Z,36.31
2018-09-02T10:58:14.712Z,37.03
2018-09-02T10:59:14.760Z,37.44
2018-09-02T11:00:39.221Z,37.72
2018-09-02T11:01:29.325Z,37.67
2018-09-02T11:02:23.234Z,37.68
2018-09-02T11:06:31.906Z,38.52
2018-09-02T11:09:14.247Z,37.64
2018-09-02T11:16:19.835Z,35.63
2018-09-02T11:17:16.574Z,35.71
2018-09-02T11:18:19.451Z,37.35
2018-09-02T11:21:19.457Z,43.81
2018-09-02T11:22:17.051Z,44.64
2018-09-02T11:23:16.561Z,45.78
2018-09-02T11:24:16.573Z,46.38
2018-09-02T11:25:16.569Z,45.99
2018-09-02T11:27:17.311Z,46.20
2018-09-02T11:28:16.611Z,45.15
2018-09-02T11:29:16.503Z,44.27
2018-09-02T11:30:16.554Z,43.49
2018-09-02T11:31:16.545Z,42.82
2018-09-02T11:33:17.082Z,41.43
2018-09-02T11:34:18.960Z,40.75
2018-09-02T11:35:17.684Z,39.90
2018-09-02T11:37:16.656Z,38.84
2018-09-02T11:38:16.619Z,38.11
2018-09-02T11:39:16.659Z,37.29
2018-09-02T11:41:16.645Z,35.80
2018-09-02T11:42:16.646Z,35.15
2018-09-02T11:44:16.632Z,34.06
2018-09-02T11:49:17.083Z,32.16
2018-09-02T11:50:17.352Z,31.89
2018-09-02T11:51:16.650Z,31.58
2018-09-02T11:52:16.636Z,31.37
2018-09-02T11:53:16.639Z,31.18
2018-09-02T11:55:16.637Z,30.73
2018-09-02T11:58:19.285Z,30.08
2018-09-02T11:59:16.598Z,29.81
2018-09-02T12:00:16.613Z,29.72
2018-09-02T12:01:17.119Z,29.61
2018-09-02T12:03:19.328Z,29.24
2018-09-02T12:04:18.393Z,29.16
2018-09-02T12:05:16.598Z,29.14
2018-09-02T12:06:17.088Z,28.97
2018-09-02T12:07:17.591Z,28.91
2018-09-02T12:08:16.549Z,28.93
2018-09-02T12:09:16.606Z,28.94
2018-09-02T12:11:16.452Z,29.02
2018-09-02T12:12:19.360Z,29.05
2018-09-02T12:14:18.369Z,28.94
2018-09-02T12:15:16.454Z,28.82
2018-09-02T12:16:16.528Z,28.79
2018-09-02T12:17:16.567Z,28.75
2018-09-02T12:18:16.444Z,28.48
2018-09-02T12:19:17.060Z,28.52
2018-09-02T12:20:16.531Z,28.49
2018-09-02T12:22:16.526Z,28.45
2018-09-02T12:23:16.987Z,28.39
2018-09-02T12:25:16.536Z,28.42
2018-09-02T12:27:16.451Z,28.35
2018-09-02T12:28:16.484Z,28.30
2018-09-02T12:29:18.924Z,28.26
2018-09-02T12:30:20.437Z,28.17
2018-09-02T12:31:16.401Z,28.20
2018-09-02T12:32:16.420Z,28.19
2018-09-02T12:33:16.399Z,28.17
2018-09-02T12:34:16.307Z,28.17
2018-09-02T12:35:16.403Z,28.11
2018-09-02T12:36:16.336Z,28.14
2018-09-02T12:37:18.295Z,28.11
2018-09-02T12:38:18.450Z,28.15
2018-09-02T12:39:16.410Z,28.12
2018-09-02T12:40:16.356Z,28.22
2018-09-02T12:41:16.400Z,28.30
2018-09-02T12:42:16.978Z,28.39
2018-09-02T12:44:16.434Z,28.52
2018-09-02T12:45:17.344Z,28.67
2018-09-02T12:46:18.464Z,28.67
2018-09-02T12:47:18.482Z,28.72
2018-09-02T12:48:16.322Z,28.69
2018-09-02T12:49:16.437Z,28.78
2018-09-02T12:51:16.406Z,28.79
2018-09-02T12:54:17.391Z,28.75
2018-09-02T12:55:16.406Z,28.81
2018-09-02T12:56:16.373Z,28.81
2018-09-02T12:57:16.277Z,28.86
2018-09-02T12:58:16.363Z,28.91
2018-09-02T12:59:16.299Z,28.94
2018-09-02T13:00:18.951Z,28.86
2018-09-02T13:01:16.337Z,28.81
2018-09-02T13:02:18.073Z,28.86
2018-09-02T13:04:16.168Z,28.88
2018-09-02T13:08:16.317Z,28.84
2018-09-02T13:09:16.241Z,28.91
2018-09-02T13:11:16.307Z,29.01
2018-09-02T13:12:16.257Z,29.02
2018-09-02T13:13:16.256Z,28.93
2018-09-02T13:14:19.329Z,29.10
2018-09-02T13:15:16.274Z,29.08
2018-09-02T13:16:16.736Z,29.12
2018-09-02T13:17:16.754Z,29.14
2018-09-02T13:18:16.286Z,29.16
2018-09-02T13:19:16.226Z,29.12
2018-09-02T13:21:16.187Z,29.17
2018-09-02T13:22:17.195Z,29.20
2018-09-02T13:23:17.958Z,29.23
2018-09-02T13:24:16.153Z,29.20
2018-09-02T13:25:16.264Z,29.14
2018-09-02T13:26:16.265Z,29.24
2018-09-02T13:27:17.144Z,29.26
2018-09-02T13:28:16.415Z,29.14
2018-09-02T13:29:16.237Z,29.05
2018-09-02T13:31:18.849Z,29.10
2018-09-02T13:32:18.431Z,29.08
2018-09-02T13:33:17.950Z,29.05
2018-09-02T13:34:16.212Z,29.17
2018-09-02T13:36:16.194Z,28.98
2018-09-02T13:39:28.839Z,28.74
2018-09-02T13:40:17.954Z,28.60
2018-09-02T13:41:18.465Z,28.62
2018-09-02T13:45:17.943Z,28.49
2018-09-02T13:46:16.172Z,28.47
2018-09-02T13:48:16.013Z,28.52
2018-09-02T13:49:16.104Z,28.62
2018-09-02T13:52:16.016Z,28.76
2018-09-02T13:53:16.651Z,28.85
2018-09-02T13:54:17.976Z,28.97
2018-09-02T13:55:16.154Z,29.05
2018-09-02T13:57:18.945Z,29.19
2018-09-02T13:58:17.110Z,29.22
2018-09-02T13:59:24.549Z,29.24
2018-09-02T14:01:20.511Z,29.24
2018-09-02T14:02:09.518Z,29.19
2018-09-02T14:04:12.947Z,29.17
2018-09-02T14:07:18.365Z,29.01
2018-09-02T14:07:56.294Z,28.97
2018-09-02T14:12:44.040Z,29.10
2018-09-02T14:15:37.415Z,29.12
2018-09-02T14:16:36.322Z,29.16
2018-09-02T14:21:31.767Z,29.14
2018-09-02T14:22:34.811Z,29.12
2018-09-02T14:24:30.755Z,29.17
2018-09-02T14:25:51.816Z,29.14
2018-09-02T14:27:30.909Z,29.22
2018-09-02T14:28:30.347Z,29.17
2018-09-02T14:31:24.434Z,29.24
2018-09-02T14:32:56.821Z,29.32
2018-09-02T14:34:04.660Z,29.41
2018-09-02T14:36:13.027Z,29.60
2018-09-02T14:38:10.027Z,29.72
2018-09-02T14:38:43.041Z,29.79
2018-09-02T14:40:46.957Z,29.95
2018-09-02T14:41:35.903Z,30.90
2018-09-02T14:43:29.332Z,31.51
2018-09-02T14:44:29.900Z,31.59
2018-09-02T14:46:30.255Z,31.42
2018-09-02T14:47:37.751Z,31.33
2018-09-02T14:48:23.736Z,31.27
2018-09-02T14:50:24.618Z,31.17
2018-09-02T14:52:22.770Z,31.02
2018-09-02T14:53:23.245Z,30.97
2018-09-02T14:55:22.783Z,30.62
2018-09-02T14:56:24.808Z,30.43
2018-09-02T14:57:23.295Z,30.30
2018-09-02T14:58:23.332Z,30.13
2018-09-02T14:59:37.177Z,29.95
2018-09-02T15:00:23.267Z,29.68
2018-09-02T15:02:55.786Z,29.47
2018-09-02T15:03:56.784Z,29.35
2018-09-02T15:04:56.663Z,29.14
2018-09-02T15:05:55.797Z,29.08
2018-09-02T15:07:59.177Z,28.72
2018-09-02T15:08:56.404Z,28.62
2018-09-02T15:09:57.642Z,28.48
2018-09-02T15:10:57.573Z,28.38
2018-09-02T15:11:55.707Z,28.51
2018-09-02T15:13:00.602Z,28.52
2018-09-02T15:13:55.745Z,28.48
2018-09-02T15:15:18.676Z,28.41
2018-09-02T15:15:55.531Z,28.26
2018-09-02T15:16:56.637Z,28.08
2018-09-02T15:18:55.793Z,27.98
2018-09-02T15:19:55.694Z,28.27
2018-09-02T15:20:55.687Z,28.63
2018-09-02T15:21:56.105Z,29.04
2018-09-02T15:22:55.734Z,29.31
2018-09-02T15:24:00.094Z,29.50
2018-09-02T15:24:56.322Z,29.57
2018-09-02T15:25:56.121Z,29.73
2018-09-02T15:26:55.743Z,29.86
2018-09-02T15:27:55.688Z,29.65
2018-09-02T15:28:55.813Z,29.51
2018-09-02T15:29:55.783Z,29.19
2018-09-02T15:30:55.698Z,29.02
2018-09-02T15:31:57.508Z,28.76
2018-09-02T15:33:03.394Z,28.37
2018-09-02T15:35:05.099Z,28.00
2018-09-02T15:35:49.047Z,27.86
2018-09-02T15:36:49.155Z,27.63
2018-09-02T15:37:50.735Z,27.52
2018-09-02T15:38:50.581Z,27.39
2018-09-02T15:40:53.518Z,27.26
2018-09-02T15:41:50.307Z,27.14
2018-09-02T15:42:56.660Z,27.05
2018-09-02T15:45:26.654Z,26.70
2018-09-02T15:46:18.809Z,26.65
2018-09-02T15:49:16.635Z,26.33
2018-09-02T15:50:13.683Z,26.31
2018-09-02T15:51:13.542Z,26.10
2018-09-02T15:52:14.712Z,26.05
2018-09-02T15:53:43.726Z,26.19
2018-09-02T15:54:12.290Z,26.03
2018-09-02T15:56:57.906Z,25.85
2018-09-02T15:57:55.896Z,25.80
2018-09-02T15:59:51.294Z,25.62
2018-09-02T16:00:53.724Z,25.60
2018-09-02T16:02:42.684Z,25.44
2018-09-02T16:03:42.231Z,25.46